createdAt,value
2019-05-29T00:02:43.160Z,77836.27
2019-05-29T00:07:54.950Z,77850.25
2019-05-29T00:13:01.581Z,77857.23
2019-05-29T00:18:08.329Z,77875.22
2019-05-29T00:23:18.839Z,77880.20
2019-05-29T00:28:26.571Z,77874.22
2019-05-29T00:33:35.737Z,77879.21
2019-05-29T00:38:43.008Z,77899.19
2019-05-29T00:43:48.784Z,77934.14
2019-05-29T00:48:56.747Z,77934.14
2019-05-29T00:54:05.487Z,77908.17
2019-05-29T00:59:13.558Z,77881.20
2019-05-29T01:04:20.763Z,77884.20
2019-05-29T01:09:30.776Z,77908.17
2019-05-29T01:14:49.616Z,77912.17
2019-05-29T01:19:52.100Z,77908.17
2019-05-29T01:25:01.916Z,77922.16
2019-05-29T01:30:11.493Z,77931.14
2019-05-29T01:35:19.927Z,77940.13
2019-05-29T01:40:32.752Z,77960.10
2019-05-29T01:45:44.760Z,77988.06
2019-05-29T01:50:52.568Z,78006.05
2019-05-29T01:56:00.927Z,78022.02
2019-05-29T02:01:10.631Z,77981.08
2019-05-29T02:06:17.850Z,77981.08
2019-05-29T02:11:25.475Z,77979.08
2019-05-29T02:16:33.622Z,77972.09
2019-05-29T02:21:41.383Z,77998.05
2019-05-29T02:26:49.970Z,77996.06
2019-05-29T02:31:56.197Z,77990.06
2019-05-29T02:37:05.887Z,77982.08
2019-05-29T02:42:12.619Z,77978.08
2019-05-29T02:47:23.656Z,78002.05
2019-05-29T02:52:36.252Z,77988.06
2019-05-29T02:57:55.098Z,77984.07
2019-05-29T03:03:01.415Z,77983.08
2019-05-29T03:08:10.205Z,77992.06
2019-05-29T03:13:16.017Z,78040.00
2019-05-29T03:18:27.917Z,78084.94
2019-05-29T03:23:36.712Z,78075.95
2019-05-29T03:28:48.625Z,78079.95
2019-05-29T03:33:59.484Z,78069.96
2019-05-29T03:39:09.115Z,78052.98
2019-05-29T03:44:16.308Z,78038.00
2019-05-29T03:49:26.818Z,78060.97
2019-05-29T03:54:35.342Z,78055.98
2019-05-29T03:59:43.618Z,78063.97
2019-05-29T04:04:49.524Z,78067.97
2019-05-29T04:09:55.799Z,78000.05
2019-05-29T04:15:04.727Z,78022.02
2019-05-29T04:20:15.145Z,78016.03
2019-05-29T04:25:24.364Z,78012.03
2019-05-29T04:30:34.186Z,78016.03
2019-05-29T04:35:43.774Z,78037.00
2019-05-29T04:40:50.919Z,78037.00
2019-05-29T04:45:57.144Z,78034.01
2019-05-29T04:51:07.773Z,77996.06
2019-05-29T04:56:16.441Z,77961.10
2019-05-29T05:01:22.301Z,77993.06
2019-05-29T05:06:31.519Z,78009.04
2019-05-29T05:11:40.471Z,77966.09
2019-05-29T05:16:51.742Z,77899.19
2019-05-29T05:22:00.733Z,77832.27
2019-05-29T05:27:08.574Z,77792.33
2019-05-29T05:32:16.137Z,77788.33
2019-05-29T05:37:22.942Z,77807.30
2019-05-29T05:42:31.142Z,77766.36
2019-05-29T05:47:50.098Z,77758.38
2019-05-29T05:52:46.527Z,77746.39
2019-05-29T05:57:52.525Z,77746.39
2019-05-29T06:03:01.283Z,77710.44
2019-05-29T06:08:07.934Z,77690.47
2019-05-29T06:13:15.680Z,77673.48
2019-05-29T06:18:26.212Z,77630.55
2019-05-29T06:23:36.999Z,77616.56
2019-05-29T06:28:45.539Z,77631.55
2019-05-29T06:33:56.098Z,77617.56
2019-05-29T06:39:07.074Z,77569.63
2019-05-29T06:44:20.187Z,77526.69
2019-05-29T06:49:31.449Z,77542.67
2019-05-29T06:54:44.155Z,77515.70
2019-05-29T06:59:52.885Z,77512.71
2019-05-29T07:05:02.461Z,77494.73
2019-05-29T07:10:14.117Z,77488.74
2019-05-29T07:15:22.272Z,77462.78
2019-05-29T07:20:28.157Z,77445.80
2019-05-29T07:25:38.724Z,77436.81
2019-05-29T07:30:59.438Z,77422.84
2019-05-29T07:36:01.373Z,77412.85
2019-05-29T07:41:08.795Z,77420.84
2019-05-29T07:46:17.180Z,77386.89
2019-05-29T07:51:26.790Z,77362.92
2019-05-29T07:56:36.688Z,77321.98
2019-05-29T08:01:47.871Z,77305.01
2019-05-29T08:06:57.408Z,77317.99
2019-05-29T08:12:05.605Z,77304.02
2019-05-29T08:17:11.089Z,77251.09
2019-05-29T08:22:33.267Z,77221.13
2019-05-29T08:27:31.688Z,77265.06
2019-05-29T08:32:38.303Z,77261.08
2019-05-29T08:37:44.961Z,77200.16
2019-05-29T08:42:57.990Z,77196.17
2019-05-29T08:48:07.730Z,77200.16
2019-05-29T08:53:17.409Z,77220.14
2019-05-29T08:58:25.050Z,77188.19
2019-05-29T09:03:33.896Z,77176.20
2019-05-29T09:08:43.729Z,77151.23
2019-05-29T09:13:54.979Z,77152.23
2019-05-29T09:19:04.667Z,77117.29
2019-05-29T09:24:16.349Z,77079.34
2019-05-29T09:29:31.095Z,77096.32
2019-05-29T09:34:39.990Z,77070.36
2019-05-29T09:39:49.959Z,77045.40
2019-05-29T09:44:59.017Z,77034.41
2019-05-29T09:50:09.314Z,77011.45
2019-05-29T09:55:18.232Z,76993.48
2019-05-29T10:00:27.108Z,76977.50
2019-05-29T10:05:43.756Z,76972.51
2019-05-29T10:11:03.854Z,76962.52
2019-05-29T10:16:02.894Z,76939.56
2019-05-29T10:21:12.819Z,76986.48
2019-05-29T10:26:22.464Z,76971.52
2019-05-29T10:31:32.901Z,76948.55
2019-05-29T10:36:42.369Z,76916.59
2019-05-29T10:41:53.024Z,77007.45
2019-05-29T10:47:02.730Z,76944.55
2019-05-29T10:52:16.674Z,76887.64
2019-05-29T10:57:21.776Z,76868.67
2019-05-29T11:02:27.746Z,76869.67
2019-05-29T11:07:35.425Z,76854.69
2019-05-29T11:12:44.129Z,76795.79
2019-05-29T11:17:53.232Z,76777.81
2019-05-29T11:23:10.634Z,76729.89
2019-05-29T11:28:18.511Z,76709.92
2019-05-29T11:33:28.272Z,76703.94
2019-05-29T11:39:15.116Z,76672.98
2019-05-29T11:44:21.029Z,76665.00
2019-05-29T11:49:30.292Z,76672.98
2019-05-29T11:54:37.506Z,76652.02
2019-05-29T11:59:47.457Z,76688.95
2019-05-29T12:04:55.141Z,76668.99
2019-05-29T12:10:05.195Z,76632.05
2019-05-29T12:15:23.462Z,76577.14
2019-05-29T12:20:33.888Z,76548.19
2019-05-29T12:25:41.416Z,76563.16
2019-05-29T12:30:49.679Z,76560.17
2019-05-29T12:35:57.386Z,76556.17
2019-05-29T12:41:05.386Z,76542.20
2019-05-29T12:46:13.739Z,76580.14
2019-05-29T12:51:23.044Z,76565.16
2019-05-29T12:56:31.588Z,76538.20
2019-05-29T13:01:40.766Z,76470.31
2019-05-29T13:06:49.718Z,76439.38
2019-05-29T13:12:04.800Z,76425.39
2019-05-29T13:17:13.394Z,76398.44
2019-05-29T13:22:20.006Z,76391.45
2019-05-29T13:27:29.297Z,76380.47
2019-05-29T13:32:36.866Z,76350.52
2019-05-29T13:37:48.470Z,76318.58
2019-05-29T13:43:04.417Z,76290.63
2019-05-29T13:48:09.226Z,76268.66
2019-05-29T13:53:16.931Z,75899.31
2019-05-29T13:58:28.246Z,75577.91
2019-05-29T14:03:34.996Z,75354.34
2019-05-29T14:08:42.080Z,75294.46
2019-05-29T14:13:49.606Z,75793.51
2019-05-29T14:19:00.714Z,75466.13
2019-05-29T14:24:26.731Z,75501.06
2019-05-29T14:29:24.735Z,75462.13
2019-05-29T14:34:32.520Z,75114.81
2019-05-29T14:39:42.406Z,75559.95
2019-05-29T14:44:51.532Z,75938.25
2019-05-29T14:50:02.528Z,76022.09
2019-05-29T14:55:18.343Z,76067.02
2019-05-29T15:00:29.162Z,76112.94
2019-05-29T15:05:34.533Z,76124.91
2019-05-29T15:10:45.468Z,76128.91
2019-05-29T15:15:54.131Z,76156.86
2019-05-29T15:21:03.127Z,76196.78
2019-05-29T15:26:11.702Z,76216.75
2019-05-29T15:31:18.290Z,76266.66
2019-05-29T15:36:24.228Z,76286.63
2019-05-29T15:41:36.634Z,76303.60
2019-05-29T15:46:44.388Z,76308.59
2019-05-29T15:51:51.736Z,76282.64
2019-05-29T15:57:02.275Z,76294.62
2019-05-29T16:02:09.465Z,76296.61
2019-05-29T16:07:19.432Z,76304.60
2019-05-29T16:12:32.348Z,76249.69
2019-05-29T16:17:43.284Z,76242.70
2019-05-29T16:22:51.787Z,76241.70
2019-05-29T16:28:00.917Z,76224.73
2019-05-29T16:33:10.830Z,76246.70
2019-05-29T16:38:19.757Z,76269.66
2019-05-29T16:43:25.457Z,76291.63
2019-05-29T16:48:30.704Z,76243.70
2019-05-29T16:53:41.117Z,76205.77
2019-05-29T16:58:54.051Z,76190.80
2019-05-29T17:04:04.646Z,76229.73
2019-05-29T17:09:12.483Z,76240.71
2019-05-29T17:14:22.969Z,76275.65
2019-05-29T17:19:30.831Z,76289.63
2019-05-29T17:24:37.411Z,76286.63
2019-05-29T17:29:51.141Z,76292.63
2019-05-29T17:34:56.451Z,76290.63
2019-05-29T17:40:08.997Z,76241.70
2019-05-29T17:45:21.542Z,76256.68
2019-05-29T17:50:29.156Z,76276.65
2019-05-29T17:55:40.247Z,76308.59
2019-05-29T18:00:46.335Z,76392.45
2019-05-29T18:05:53.857Z,76446.36
2019-05-29T18:11:16.968Z,76450.35
2019-05-29T18:16:33.331Z,76452.34
2019-05-29T18:21:39.565Z,76438.38
2019-05-29T18:26:47.537Z,76404.43
2019-05-29T18:31:56.418Z,76421.41
2019-05-29T18:37:02.344Z,76420.41
2019-05-29T18:42:10.084Z,76451.34
2019-05-29T18:47:23.113Z,76487.29
2019-05-29T18:52:32.720Z,76506.26
2019-05-29T18:57:43.724Z,76529.22
2019-05-29T19:02:51.690Z,76550.19
2019-05-29T19:08:01.276Z,76558.17
2019-05-29T19:13:09.950Z,76574.14
2019-05-29T19:18:22.018Z,76605.09
2019-05-29T19:23:29.103Z,76629.06
2019-05-29T19:28:37.485Z,76597.11
2019-05-29T19:33:43.527Z,76650.02
2019-05-29T19:38:52.447Z,76675.98
2019-05-29T19:44:04.871Z,76690.95
2019-05-29T19:49:14.761Z,76716.91
2019-05-29T19:54:27.433Z,76747.86
2019-05-29T19:59:36.310Z,76760.84
2019-05-29T20:04:46.088Z,76766.83
2019-05-29T20:10:00.300Z,76746.86
2019-05-29T20:15:10.487Z,76725.90
2019-05-29T20:20:20.725Z,76731.89
2019-05-29T20:25:28.839Z,76731.89
2019-05-29T20:30:38.863Z,76737.88
2019-05-29T20:35:49.629Z,76737.88
2019-05-29T20:40:59.451Z,76747.86
2019-05-29T20:46:11.011Z,76747.86
2019-05-29T20:51:18.126Z,76750.86
2019-05-29T20:56:24.150Z,76703.94
2019-05-29T21:01:42.977Z,76735.88
2019-05-29T21:06:45.568Z,76747.86
2019-05-29T21:11:52.912Z,76763.84
2019-05-29T21:17:05.873Z,76769.83
2019-05-29T21:22:14.153Z,76775.82
2019-05-29T21:27:29.508Z,76797.78
2019-05-29T21:32:40.186Z,76811.77
2019-05-29T21:37:49.368Z,76822.75
2019-05-29T21:42:59.498Z,76819.75
2019-05-29T21:48:10.531Z,76817.75
2019-05-29T21:53:19.816Z,76833.73
2019-05-29T21:58:27.328Z,76842.71
2019-05-29T22:03:33.753Z,76847.70
2019-05-29T22:08:47.999Z,76857.69
2019-05-29T22:13:58.533Z,76846.70
2019-05-29T22:19:05.889Z,76843.71
2019-05-29T22:24:11.686Z,76838.72
2019-05-29T22:29:22.464Z,76848.70
2019-05-29T22:34:28.353Z,76844.70
2019-05-29T22:39:38.685Z,76843.71
2019-05-29T22:44:51.525Z,76853.70
2019-05-29T22:49:58.441Z,76849.70
2019-05-29T22:55:06.077Z,76852.70
2019-05-29T23:00:18.776Z,76853.70
2019-05-29T23:05:24.391Z,76852.70
2019-05-29T23:10:29.627Z,76857.69
2019-05-29T23:15:39.071Z,76871.67
2019-05-29T23:20:45.621Z,76831.73
2019-05-29T23:25:56.505Z,76852.70
2019-05-29T23:31:06.271Z,76853.70
2019-05-29T23:36:11.756Z,76847.70
2019-05-29T23:41:20.057Z,76857.69
2019-05-29T23:46:29.632Z,76863.68
2019-05-29T23:51:38.229Z,76872.66
2019-05-29T23:56:49.025Z,76879.66
